createdAt,value
2022-11-09T00:00:01.007Z,99372.72
2022-11-09T00:02:28.412Z,99382.72
2022-11-09T00:04:55.368Z,99374.97
2022-11-09T00:07:22.625Z,99384.13
2022-11-09T00:09:49.761Z,99386.38
2022-11-09T00:12:18.557Z,99393.81
2022-11-09T00:14:45.671Z,99381.47
2022-11-09T00:17:12.815Z,99379.69
2022-11-09T00:19:39.806Z,99381.22
2022-11-09T00:22:06.748Z,99371.31
2022-11-09T00:24:33.853Z,99364.13
2022-11-09T00:27:00.831Z,99358.72
2022-11-09T00:29:30.600Z,99361.31
2022-11-09T00:31:57.587Z,99364.25
2022-11-09T00:34:25.138Z,99363.41
2022-11-09T00:36:52.298Z,99368.59
2022-11-09T00:39:19.483Z,99368.38
2022-11-09T00:41:46.601Z,99364.50
2022-11-09T00:44:13.784Z,99369.44
2022-11-09T00:46:42.521Z,99371.00
2022-11-09T00:49:09.413Z,99361.31
2022-11-09T00:51:36.433Z,99358.25
2022-11-09T00:54:04.129Z,99357.34
2022-11-09T00:56:31.427Z,99359.44
2022-11-09T00:58:58.477Z,99361.22
2022-11-09T01:01:26.707Z,99368.41
2022-11-09T01:03:55.122Z,99371.81
2022-11-09T01:06:25.239Z,99379.22
2022-11-09T01:08:53.422Z,99381.00
2022-11-09T01:11:22.696Z,99371.09
2022-11-09T01:13:53.256Z,99366.97
2022-11-09T01:16:23.100Z,99370.16
2022-11-09T01:18:55.267Z,99373.59
2022-11-09T01:21:25.988Z,99361.78
2022-11-09T01:23:53.056Z,99361.88
2022-11-09T01:26:20.279Z,99368.50
2022-11-09T01:28:48.136Z,99372.59
2022-11-09T01:31:17.771Z,99374.59
2022-11-09T01:33:45.357Z,99381.69
2022-11-09T01:36:17.442Z,99386.28
2022-11-09T01:38:44.817Z,99392.91
2022-11-09T01:41:15.605Z,99400.34
2022-11-09T01:43:42.897Z,99399.84
2022-11-09T01:46:20.604Z,99413.19
2022-11-09T01:48:53.556Z,99424.59
2022-11-09T01:51:27.820Z,99417.78
2022-11-09T01:54:02.717Z,99419.31
2022-11-09T01:56:32.994Z,99413.53
2022-11-09T01:59:05.392Z,99427.34
2022-11-09T02:01:35.461Z,99423.22
2022-11-09T02:04:10.817Z,99410.59
2022-11-09T02:06:39.600Z,99402.56
2022-11-09T02:09:16.351Z,99408.34
2022-11-09T02:11:43.746Z,99409.88
2022-11-09T02:14:13.059Z,99402.44
2022-11-09T02:16:41.890Z,99406.31
2022-11-09T02:19:08.859Z,99411.66
2022-11-09T02:21:37.994Z,99404.19
2022-11-09T02:24:06.724Z,99412.53
2022-11-09T02:26:41.394Z,99409.25
2022-11-09T02:29:14.041Z,99406.66
2022-11-09T02:31:53.303Z,99413.00
2022-11-09T02:34:23.516Z,99408.34
2022-11-09T02:36:52.397Z,99402.31
2022-11-09T02:39:26.864Z,99405.38
2022-11-09T02:42:02.731Z,99414.69
2022-11-09T02:44:39.640Z,99425.44
2022-11-09T02:47:08.016Z,99437.28
2022-11-09T02:49:34.935Z,99445.19
2022-11-09T02:52:03.760Z,99449.69
2022-11-09T02:54:30.561Z,99438.38
2022-11-09T02:56:59.195Z,99441.56
2022-11-09T02:59:26.937Z,99440.72
2022-11-09T03:01:53.882Z,99439.41
2022-11-09T03:04:21.649Z,99443.19
2022-11-09T03:06:48.651Z,99447.03
2022-11-09T03:09:20.107Z,99453.81
2022-11-09T03:11:47.018Z,99455.09
2022-11-09T03:14:15.958Z,99444.00
2022-11-09T03:16:50.722Z,99442.84
2022-11-09T03:19:18.464Z,99432.19
2022-11-09T03:21:47.177Z,99436.53
2022-11-09T03:24:14.443Z,99438.06
2022-11-09T03:26:43.616Z,99451.81
2022-11-09T03:29:10.660Z,99442.38
2022-11-09T03:31:37.586Z,99446.03
2022-11-09T03:34:08.039Z,99444.53
2022-11-09T03:36:35.782Z,99445.25
2022-11-09T03:39:03.358Z,99448.19
2022-11-09T03:41:31.977Z,99442.72
2022-11-09T03:44:00.593Z,99449.59
2022-11-09T03:46:27.576Z,99439.78
2022-11-09T03:48:54.452Z,99442.63
2022-11-09T03:51:21.463Z,99443.63
2022-11-09T03:54:39.109Z,99446.06
2022-11-09T03:57:06.364Z,99434.72
2022-11-09T03:59:34.780Z,99438.25
2022-11-09T04:02:01.677Z,99435.63
2022-11-09T04:04:29.031Z,99443.00
2022-11-09T04:06:56.071Z,99442.94
2022-11-09T04:09:22.986Z,99434.28
2022-11-09T04:11:50.103Z,99440.75
2022-11-09T04:14:17.267Z,99441.81
2022-11-09T04:16:45.550Z,99435.66
2022-11-09T04:19:12.595Z,99440.78
2022-11-09T04:21:39.644Z,99436.66
2022-11-09T04:24:06.834Z,99436.84
2022-11-09T04:26:33.628Z,99430.66
2022-11-09T04:29:00.603Z,99436.16
2022-11-09T04:31:28.364Z,99440.97
2022-11-09T04:33:56.624Z,99444.88
2022-11-09T04:36:23.742Z,99454.63
2022-11-09T04:38:50.656Z,99462.28
2022-11-09T04:41:17.855Z,99459.59
2022-11-09T04:43:44.730Z,99469.47
2022-11-09T04:46:11.671Z,99470.16
2022-11-09T04:48:38.499Z,99469.97
2022-11-09T04:51:10.781Z,99466.88
2022-11-09T04:53:38.925Z,99464.44
2022-11-09T04:56:07.929Z,99461.56
2022-11-09T04:58:35.371Z,99456.78
2022-11-09T05:01:05.088Z,99458.03
2022-11-09T05:04:57.317Z,99454.13
2022-11-09T05:07:26.154Z,99461.81
2022-11-09T05:17:38.349Z,99447.88
2022-11-09T05:20:06.486Z,99447.88
2022-11-09T05:22:44.795Z,99451.44
2022-11-09T05:25:24.468Z,99463.00
2022-11-09T05:28:10.581Z,99466.72
2022-11-09T05:30:38.075Z,99456.03
2022-11-09T05:33:05.701Z,99455.41
2022-11-09T05:35:37.754Z,99450.19
2022-11-09T05:38:08.487Z,99460.16
2022-11-09T05:41:09.216Z,99453.25
2022-11-09T05:43:44.797Z,99458.22
2022-11-09T05:46:29.717Z,99458.13
2022-11-09T05:49:34.090Z,99453.47
2022-11-09T05:52:05.542Z,99460.69
2022-11-09T05:55:26.194Z,99444.66
2022-11-09T05:58:28.904Z,99436.66
2022-11-09T06:01:23.595Z,99426.16
2022-11-09T06:04:37.282Z,99445.03
2022-11-09T06:07:00.098Z,99441.94
2022-11-09T06:09:31.438Z,99440.69
2022-11-09T06:12:59.786Z,99437.97
2022-11-09T06:15:32.875Z,99436.53
2022-11-09T06:19:16.043Z,99458.78
2022-11-09T06:22:31.171Z,99455.56
2022-11-09T06:25:22.990Z,99477.75
2022-11-09T06:28:14.215Z,99485.03
2022-11-09T06:30:41.758Z,99501.06
2022-11-09T06:33:08.656Z,99523.44
2022-11-09T06:35:35.562Z,99532.03
2022-11-09T06:38:03.920Z,99536.09
2022-11-09T06:40:32.764Z,99545.47
2022-11-09T06:43:00.961Z,99545.25
2022-11-09T06:45:30.452Z,99550.22
2022-11-09T06:47:58.935Z,99540.81
2022-11-09T06:50:28.840Z,99533.22
2022-11-09T06:52:57.301Z,99542.63
2022-11-09T06:55:30.780Z,99561.34
2022-11-09T06:58:09.882Z,99566.22
2022-11-09T07:00:46.841Z,99553.69
2022-11-09T07:03:15.188Z,99552.97
2022-11-09T07:05:51.626Z,99553.72
2022-11-09T07:08:50.243Z,99554.31
2022-11-09T07:11:27.483Z,99557.88
2022-11-09T07:14:03.658Z,99556.06
2022-11-09T07:16:31.929Z,99559.97
2022-11-09T07:19:06.073Z,99547.56
2022-11-09T07:21:40.735Z,99550.00
2022-11-09T07:24:18.673Z,99539.19
2022-11-09T07:26:52.774Z,99532.13
2022-11-09T07:29:24.430Z,99541.81
2022-11-09T07:31:54.300Z,99536.63
2022-11-09T07:34:27.736Z,99543.72
2022-11-09T07:37:17.517Z,99534.50
2022-11-09T07:39:49.057Z,99536.78
2022-11-09T07:42:18.577Z,99531.50
2022-11-09T07:44:49.003Z,99537.09
2022-11-09T07:47:20.430Z,99533.13
2022-11-09T07:49:51.768Z,99546.38
2022-11-09T07:52:25.367Z,99546.50
2022-11-09T07:54:55.226Z,99547.78
2022-11-09T07:57:29.643Z,99545.03
2022-11-09T08:04:51.440Z,99546.28
2022-11-09T08:07:22.979Z,99546.47
2022-11-09T08:10:15.488Z,99550.34
2022-11-09T08:18:32.675Z,99542.81
2022-11-09T08:23:55.386Z,99513.38
2022-11-09T08:26:56.068Z,99512.09
2022-11-09T08:29:32.831Z,99520.97
2022-11-09T08:32:00.253Z,99518.81
2022-11-09T08:34:27.269Z,99531.56
2022-11-09T08:37:10.708Z,99535.63
2022-11-09T08:39:37.988Z,99522.19
2022-11-09T08:42:13.769Z,99515.03
2022-11-09T08:44:40.879Z,99516.81
2022-11-09T08:47:18.464Z,99518.69
2022-11-09T08:49:48.026Z,99523.31
2022-11-09T08:52:27.001Z,99532.50
2022-11-09T08:54:57.005Z,99536.34
2022-11-09T09:00:21.601Z,99542.09
2022-11-09T09:03:04.650Z,99544.19
2022-11-09T09:05:32.361Z,99544.41
2022-11-09T09:08:00.687Z,99541.94
2022-11-09T09:10:30.962Z,99548.13
2022-11-09T09:12:58.357Z,99559.53
2022-11-09T09:16:59.860Z,99561.34
2022-11-09T09:19:56.845Z,99574.13
2022-11-09T09:22:36.402Z,99572.84
2022-11-09T10:48:53.485Z,99548.22
2022-11-09T10:51:45.020Z,99543.75
2022-11-09T10:54:49.783Z,99542.59
2022-11-09T11:01:18.401Z,99542.38
2022-11-09T11:09:32.695Z,99536.88
2022-11-09T11:12:30.602Z,99531.91
2022-11-09T11:15:24.225Z,99530.59
2022-11-09T11:18:22.037Z,99529.97
2022-11-09T11:21:18.767Z,99518.59
2022-11-09T11:24:16.894Z,99518.78
2022-11-09T11:27:22.289Z,99522.47
2022-11-09T11:33:57.253Z,99513.72
2022-11-09T11:37:03.980Z,99510.53
2022-11-09T11:40:02.173Z,99502.13
2022-11-09T11:43:18.307Z,99511.72
2022-11-09T11:46:17.993Z,99515.81
2022-11-09T11:49:37.066Z,99514.34
2022-11-09T11:52:46.146Z,99509.50
2022-11-09T11:55:58.118Z,99505.59
2022-11-09T11:59:19.164Z,99507.53
2022-11-09T12:02:53.283Z,99502.16
2022-11-09T12:06:09.424Z,99499.53
2022-11-09T12:09:15.010Z,99500.69
2022-11-09T12:12:17.044Z,99504.06
2022-11-09T12:15:23.911Z,99506.13
2022-11-09T12:18:32.054Z,99504.00
2022-11-09T12:21:35.478Z,99504.31
2022-11-09T12:24:52.939Z,99499.84
2022-11-09T12:28:13.582Z,99500.09
2022-11-09T12:31:23.884Z,99498.47
2022-11-09T12:34:24.929Z,99500.69
2022-11-09T12:37:26.319Z,99501.03
2022-11-09T12:40:29.603Z,99495.81
2022-11-09T12:47:42.541Z,99491.88
2022-11-09T12:50:57.911Z,99496.00
2022-11-09T12:54:53.691Z,99490.53
2022-11-09T12:58:01.171Z,99493.16
2022-11-09T13:01:11.644Z,99495.56
2022-11-09T13:04:21.683Z,99500.34
2022-11-09T13:07:32.988Z,99503.47
2022-11-09T13:10:42.156Z,99502.97
2022-11-09T13:13:30.956Z,99499.69
2022-11-09T13:17:25.390Z,99505.88
2022-11-09T13:20:01.141Z,99502.09
2022-11-09T13:23:04.348Z,99498.53
2022-11-09T13:26:24.499Z,99502.84
2022-11-09T13:30:00.914Z,99508.00
2022-11-09T13:34:00.518Z,99507.13
2022-11-09T13:37:57.207Z,99503.91
2022-11-09T13:40:47.430Z,99499.53
2022-11-09T13:57:46.671Z,99534.28
2022-11-09T14:43:27.702Z,99558.00
2022-11-09T14:50:24.228Z,99562.09
2022-11-09T14:53:17.993Z,99569.84
2022-11-09T14:56:54.685Z,99577.44
2022-11-09T15:05:29.698Z,99579.88
2022-11-09T15:08:28.936Z,99578.53
2022-11-09T15:18:14.242Z,99583.31
2022-11-09T15:20:29.631Z,99586.66
2022-11-09T15:23:35.860Z,99596.97
2022-11-09T15:26:36.346Z,99592.38
2022-11-09T15:48:37.131Z,99595.22
2022-11-09T15:51:40.156Z,99596.50
2022-11-09T16:01:05.199Z,99589.41
2022-11-09T16:26:20.388Z,99593.41
2022-11-09T16:29:07.475Z,99595.22
2022-11-09T16:31:53.597Z,99603.94
2022-11-09T16:34:38.754Z,99607.84
2022-11-09T16:37:24.284Z,99611.63
2022-11-09T16:40:15.799Z,99612.69
2022-11-09T16:43:03.910Z,99620.00
2022-11-09T16:45:50.465Z,99630.03
2022-11-09T16:48:36.562Z,99635.91
2022-11-09T16:51:22.582Z,99634.38
2022-11-09T16:54:15.949Z,99643.72
2022-11-09T16:57:01.505Z,99653.28
2022-11-09T16:59:50.228Z,99664.31
2022-11-09T17:02:35.853Z,99672.22
2022-11-09T17:05:21.676Z,99673.25
2022-11-09T17:08:09.666Z,99690.16
2022-11-09T17:10:55.509Z,99696.44
2022-11-09T17:13:41.854Z,99706.00
2022-11-09T17:16:33.772Z,99723.59
2022-11-09T17:19:26.230Z,99722.16
2022-11-09T17:22:22.041Z,99714.22
2022-11-09T17:25:09.720Z,99711.59
2022-11-09T17:27:55.753Z,99712.25
2022-11-09T17:30:41.945Z,99717.78
2022-11-09T17:33:28.956Z,99728.78
2022-11-09T17:36:41.513Z,99731.53
2022-11-09T17:39:30.022Z,99726.34
2022-11-09T17:42:16.082Z,99722.09
2022-11-09T17:45:02.349Z,99726.81
2022-11-09T17:47:48.599Z,99733.31
2022-11-09T17:50:37.508Z,99741.22
2022-11-09T17:53:57.576Z,99728.97
2022-11-09T17:57:14.223Z,99737.19
2022-11-09T18:00:15.399Z,99739.91
2022-11-09T18:03:05.169Z,99745.56
2022-11-09T18:06:14.360Z,99744.03
2022-11-09T18:09:38.994Z,99736.03
2022-11-09T18:28:50.546Z,99751.06
2022-11-09T18:31:46.438Z,99754.91
2022-11-09T18:34:32.576Z,99753.75
2022-11-09T18:40:08.549Z,99761.09
2022-11-09T18:42:54.648Z,99762.75
2022-11-09T18:45:41.639Z,99775.88
2022-11-09T18:48:28.350Z,99765.94
2022-11-09T18:51:19.119Z,99779.84
2022-11-09T18:54:04.938Z,99778.09
2022-11-09T18:56:52.240Z,99780.19
2022-11-09T18:59:37.818Z,99789.75
2022-11-09T19:02:24.982Z,99786.59
2022-11-09T19:05:10.551Z,99791.56
2022-11-09T19:07:56.248Z,99795.69
2022-11-09T19:10:41.687Z,99795.44
2022-11-09T19:13:27.013Z,99804.19
2022-11-09T19:16:14.406Z,99806.47
2022-11-09T19:19:02.075Z,99803.75
2022-11-09T19:21:50.358Z,99825.00
2022-11-09T19:24:36.308Z,99838.88
2022-11-09T19:27:22.424Z,99857.25
2022-11-09T19:30:10.066Z,99855.97
2022-11-09T19:32:55.669Z,99866.16
2022-11-09T19:35:43.091Z,99855.06
2022-11-09T19:38:28.568Z,99864.69
2022-11-09T19:41:13.993Z,99869.88
2022-11-09T19:43:59.582Z,99881.41
2022-11-09T19:46:45.702Z,99884.56
2022-11-09T19:49:31.751Z,99885.94
2022-11-09T19:52:18.698Z,99870.34
2022-11-09T19:55:05.168Z,99882.25
2022-11-09T19:57:51.242Z,99896.03
2022-11-09T20:00:37.103Z,99890.16
2022-11-09T20:03:22.472Z,99886.16
2022-11-09T20:06:10.174Z,99896.13
2022-11-09T20:09:01.551Z,99898.38
2022-11-09T20:11:47.592Z,99909.41
2022-11-09T20:14:33.947Z,99907.31
2022-11-09T20:17:21.986Z,99907.09
2022-11-09T20:20:15.703Z,99907.88
2022-11-09T20:23:01.563Z,99912.28
2022-11-09T20:25:50.082Z,99914.00
2022-11-09T20:28:36.357Z,99925.28
2022-11-09T20:31:26.681Z,99933.91
2022-11-09T20:34:12.832Z,99935.06
2022-11-09T20:37:15.503Z,99942.44
2022-11-09T20:40:01.181Z,99944.97
2022-11-09T20:42:48.433Z,99940.53
2022-11-09T20:45:36.038Z,99949.41
2022-11-09T20:48:51.916Z,99950.81
2022-11-09T20:51:30.281Z,99947.97
2022-11-09T20:54:15.596Z,99949.09
2022-11-09T20:57:01.553Z,99949.47
2022-11-09T20:59:54.150Z,99954.19
2022-11-09T21:02:40.590Z,99960.00
2022-11-09T21:05:26.294Z,99966.63
2022-11-09T21:08:13.756Z,99964.09
2022-11-09T21:11:00.980Z,99971.81
2022-11-09T21:13:49.413Z,99973.84
2022-11-09T21:16:36.941Z,99973.78
2022-11-09T21:19:22.870Z,99987.06
2022-11-09T21:22:09.052Z,99980.78
2022-11-09T21:24:57.403Z,99985.53
2022-11-09T21:27:47.845Z,99983.66
2022-11-09T21:30:34.508Z,99987.19
2022-11-09T21:33:22.202Z,99990.28
2022-11-09T21:36:09.960Z,99988.44
2022-11-09T21:38:55.795Z,99988.78
2022-11-09T21:41:42.079Z,100002.56
2022-11-09T21:44:30.010Z,100008.38
2022-11-09T21:47:19.164Z,100002.34
2022-11-09T21:50:27.971Z,100003.22
2022-11-09T21:53:13.850Z,100010.72
2022-11-09T21:56:00.299Z,100008.66
2022-11-09T21:58:48.799Z,100012.22
2022-11-09T22:01:34.619Z,100017.00
2022-11-09T22:04:20.765Z,100023.19
2022-11-09T22:07:07.993Z,100031.28
2022-11-09T22:10:10.787Z,100032.72
2022-11-09T22:12:56.896Z,100035.00
2022-11-09T22:15:50.448Z,100032.91
2022-11-09T22:18:37.236Z,100032.47
2022-11-09T22:21:23.880Z,100033.72
2022-11-09T22:24:11.432Z,100030.41
2022-11-09T22:26:57.346Z,100031.88
2022-11-09T22:29:43.483Z,100037.38
2022-11-09T22:32:28.940Z,100054.44
2022-11-09T22:35:15.516Z,100059.63
2022-11-09T22:38:02.312Z,100063.22
2022-11-09T22:40:49.345Z,100068.88
2022-11-09T22:43:37.703Z,100070.13
2022-11-09T22:46:23.777Z,100079.34
2022-11-09T22:49:09.175Z,100079.13
2022-11-09T22:51:54.989Z,100083.34
2022-11-09T22:54:40.723Z,100090.41
2022-11-09T22:57:27.689Z,100094.38
2022-11-09T23:00:15.664Z,100106.66
2022-11-09T23:03:00.958Z,100106.25
2022-11-09T23:05:47.234Z,100117.06
2022-11-09T23:08:37.869Z,100122.75
2022-11-09T23:11:27.722Z,100129.53
2022-11-09T23:14:22.495Z,100136.41
2022-11-09T23:17:10.881Z,100132.03
2022-11-09T23:19:56.659Z,100141.41
2022-11-09T23:22:42.051Z,100136.63
2022-11-09T23:25:32.125Z,100147.28
2022-11-09T23:28:18.666Z,100140.38
2022-11-09T23:31:09.603Z,100139.94
2022-11-09T23:33:57.722Z,100145.94
2022-11-09T23:36:45.653Z,100148.94
2022-11-09T23:39:35.146Z,100146.19
2022-11-09T23:42:20.810Z,100150.56
2022-11-09T23:45:07.143Z,100159.09
2022-11-09T23:47:53.915Z,100165.53
2022-11-09T23:50:40.068Z,100169.06
2022-11-09T23:53:26.753Z,100172.84
2022-11-09T23:56:12.983Z,100177.19
2022-11-09T23:58:58.369Z,100179.03
